Portada
METAR-TAF:

METAR-TAF

Aeroports :

Sibu, Malàisia

latitud: 02-20N, longitud: 111-50E, altitud: 8 m

Observació

L'informe es va fer fa 12 minuts, a les 22:00 UTC
Vent 1 kt amb direcció variable
Temperatura 25°C
Humitat 94%
Pressió 1011 hPa
Visibilitat 10 km o més
Escasses núvols a una alçada de 1600 ft
Cel ennuvolat a una alçada de 15000 ft

METAR: WBGS 252200Z VRB01KT 9999 FEW016 BKN150 25/24 Q1011

Hora: 06:12 (22:12 UTC)

Pronòstic

L'informe es va fer fa 5 hores i 12 minuts, a les 17:00 UTC
Pronòstic vàlid del 25 a les 18 UTC al 26 a les 18 UTC
Vent 3 kt amb direcció variable
Visibilitat 10 km o més
Núvols disperses a una alçada de 1600 ft
Temporalment
l' 26 a les 05 UTC al 26 a les 09 UTC
Visibilitat: 4000 m
Escasses núvols a una alçada de 1500 ft, Cumulonimbus.
tempesta, pluja

TAF: WBGS 251700Z 2518/2618 VRB03KT 9999 SCT016 TEMPO 2605/2609 4000 TSRA FEW015CB

Observacions i pronòstics meteorològics de més de 4000 aeroports (METAR i TAF).

Les estacions disponibles són els punts grocs i vermells al mapa.

Posi el ratolí al punt desitjat per veure el nom de l'estació.

Feu clic per veure les observacions i els pronòstics meteorològics.

Per canviar el mapa: feu clic els botons verds amb una creu de color negre per apropar; al botó verd amb un guió per allunyar la imatge; o en les fletxes verdes per a mapes adjacents.


METAR-TAF: